Time;durP1;ratioP1;P1;durP2;ratioP2;P2;SDS_P1;SDS_P2;PMS_P1;PMS_P2;Temp;Humidity;BMP_temperature;BMP_pressure;BME280_temperature;BME280_humidity;BME280_pressure;Samples;Min_cycle;Max_cycle;Signal;HPM_P1;HPM_P2
2022/06/18 00:02:18;;;;;;;16.25;9.77;;;21.30;90.30;;;;;;5117722;27;20080;-72
2022/06/18 00:04:45;;;;;;;18.98;9.30;;;21.90;93.90;;;;;;5100890;27;20042;-72
2022/06/18 00:07:15;;;;;;;13.55;8.10;;;21.70;93.90;;;;;;5117711;27;20136;-73
2022/06/18 00:09:43;;;;;;;16.08;8.65;;;22.10;90.40;;;;;;5100855;27;20199;-72
2022/06/18 00:15:03;;;;;;;14.63;8.30;;;21.30;90.10;;;;;;5113707;28;20086;-72
2022/06/18 00:17:29;;;;;;;12.68;8.10;;;;;;;;;;5113751;28;20173;-72
2022/06/18 00:19:55;;;;;;;13.50;8.70;;;20.80;93.50;;;;;;5114078;28;20390;-72
2022/06/18 00:22:23;;;;;;;18.50;9.25;;;21.50;90.20;;;;;;5096753;28;20046;-72
2022/06/18 00:24:49;;;;;;;17.88;9.38;;;21.30;93.70;;;;;;5113737;28;20044;-72
2022/06/18 00:27:16;;;;;;;18.88;8.80;;;22.20;94.00;;;;;;5113831;28;20521;-73
2022/06/18 00:29:43;;;;;;;17.23;9.75;;;22.00;91.60;;;;;;5096891;28;20487;-72
2022/06/18 00:32:09;;;;;;;16.65;9.70;;;21.70;94.00;;;;;;5113805;28;20048;-72
2022/06/18 00:34:36;;;;;;;15.40;9.65;;;20.40;92.20;;;;;;5113564;28;20511;-72
2022/06/18 00:37:03;;;;;;;17.50;10.25;;;20.50;93.90;;;;;;5113420;28;20047;-72
2022/06/18 00:39:29;;;;;;;19.33;9.32;;;21.70;94.40;;;;;;5113740;28;20096;-72
2022/06/18 00:41:58;;;;;;;17.08;9.43;;;21.20;94.30;;;;;;5113450;28;20175;-72
2022/06/18 00:44:33;;;;;;;19.67;10.82;;;20.90;90.00;;;;;;5096448;28;20089;-73
2022/06/18 00:47:38;;;;;;;19.77;11.45;;;20.90;90.10;;;;;;5096425;28;20082;-73
2022/06/18 00:50:14;;;;;;;20.95;11.40;;;20.00;94.60;;;;;;5113275;28;20035;-72
2022/06/18 00:52:49;;;;;;;16.00;11.43;;;21.70;95.10;;;;;;5113476;28;20047;-72
2022/06/18 00:55:32;;;;;;;18.52;12.13;;;20.80;90.70;;;;;;5113221;28;20043;-72
2022/06/18 00:58:07;;;;;;;23.85;12.38;;;20.70;95.40;;;;;;5113104;28;20491;-72
2022/06/18 01:00:34;;;;;;;23.85;12.80;;;20.80;95.60;;;;;;5096138;28;20078;-72
2022/06/18 01:03:00;;;;;;;27.33;12.90;;;20.40;95.80;;;;;;5113126;28;20043;-72
2022/06/18 01:05:34;;;;;;;31.65;12.63;;;21.50;96.20;;;;;;5113123;28;20112;-72
2022/06/18 01:08:12;;;;;;;22.33;11.55;;;19.50;95.90;;;;;;5112870;28;20050;-72
2022/06/18 01:10:41;;;;;;;17.13;10.55;;;21.60;96.50;;;;;;5095626;28;20086;-72
2022/06/18 01:13:12;;;;;;;20.70;11.25;;;20.80;96.60;;;;;;5114719;27;20608;-72
2022/06/18 01:15:40;;;;;;;18.70;11.57;;;20.30;96.60;;;;;;5116275;27;20047;-72
2022/06/18 01:18:06;;;;;;;21.58;11.00;;;20.50;93.30;;;;;;5116190;27;20082;-72
2022/06/18 01:20:48;;;;;;;23.25;11.60;;;21.40;97.20;;;;;;5116246;27;20051;-72
2022/06/18 01:23:23;;;;;;;;;;;20.60;93.20;;;;;;5099509;27;20471;-72
2022/06/18 01:25:49;;;;;;;25.92;10.93;;;20.50;97.20;;;;;;5116384;27;19922;-72
2022/06/18 01:28:17;;;;;;;22.80;10.88;;;21.30;97.60;;;;;;5099234;27;20395;-72
2022/06/18 01:30:43;;;;;;;21.20;11.32;;;20.30;94.10;;;;;;5116280;28;20043;-72
2022/06/18 01:33:11;;;;;;;18.58;10.50;;;19.30;97.40;;;;;;5116038;27;20043;-72
2022/06/18 01:35:42;;;;;;;27.13;11.23;;;20.20;97.70;;;;;;5099097;27;20060;-72
2022/06/18 01:38:09;;;;;;;20.25;11.15;;;19.50;97.10;;;;;;5116237;27;20058;-72
2022/06/18 01:40:57;;;;;;;24.25;11.65;;;19.40;96.10;;;;;;5115991;27;20038;-72
2022/06/18 01:43:25;;;;;;;27.05;11.40;;;20.50;98.30;;;;;;5099026;28;20050;-72
2022/06/18 01:45:59;;;;;;;32.50;11.63;;;20.50;98.50;;;;;;5099306;27;20050;-72
2022/06/18 01:48:34;;;;;;;22.85;11.73;;;19.80;98.50;;;;;;5115939;28;20336;-73
2022/06/18 01:51:14;;;;;;;27.05;12.30;;;19.90;95.30;;;;;;5115982;28;20039;-72
2022/06/18 01:53:51;;;;;;;21.35;12.00;;;19.90;94.50;;;;;;5116236;28;20042;-72
2022/06/18 01:56:24;;;;;;;24.35;12.57;;;19.20;98.80;;;;;;5115799;28;20108;-72
2022/06/18 01:58:57;;;;;;;30.70;13.43;;;20.60;99.30;;;;;;5116089;28;20238;-72
2022/06/18 02:01:26;;;;;;;29.23;14.32;;;20.70;99.30;;;;;;5115959;28;20035;-72
2022/06/18 02:03:59;;;;;;;22.08;11.38;;;18.80;99.10;;;;;;5115941;28;20078;-72
2022/06/18 02:06:25;;;;;;;30.60;12.23;;;19.50;99.30;;;;;;5115952;28;20035;-72
2022/06/18 02:08:51;;;;;;;37.38;14.45;;;19.60;99.60;;;;;;5115709;28;20039;-72
2022/06/18 02:11:19;;;;;;;31.60;13.18;;;20.50;99.90;;;;;;5115676;28;20039;-72
2022/06/18 02:13:54;;;;;;;33.75;13.00;;;20.40;99.90;;;;;;5115551;28;20051;-72
2022/06/18 02:16:25;;;;;;;32.33;13.10;;;19.20;95.60;;;;;;5115492;28;20051;-72
2022/06/18 02:18:51;;;;;;;29.63;12.75;;;;;;;;;;5115556;28;20042;-72
2022/06/18 02:21:22;;;;;;;32.55;12.50;;;18.00;99.90;;;;;;5116561;27;20035;-72
2022/06/18 02:23:51;;;;;;;28.35;12.02;;;18.90;96.80;;;;;;5137936;27;20027;-72
2022/06/18 02:26:18;;;;;;;32.58;13.32;;;18.80;99.90;;;;;;5119411;27;20100;-72
2022/06/18 02:28:45;;;;;;;29.00;14.13;;;17.90;97.60;;;;;;5119633;27;20039;-72
2022/06/18 02:31:19;;;;;;;30.48;14.02;;;18.90;99.90;;;;;;5102488;27;20550;-72
2022/06/18 02:33:51;;;;;;;32.15;14.98;;;17.80;99.90;;;;;;5102365;27;20035;-72
2022/06/18 02:36:17;;;;;;;30.13;15.17;;;;;;;;;;5119323;27;20043;-72
2022/06/18 02:38:44;;;;;;;40.28;15.98;;;19.10;99.90;;;;;;5119414;27;20315;-72
2022/06/18 02:41:11;;;;;;;34.83;16.13;;;18.50;98.50;;;;;;5119723;27;20098;-72
2022/06/18 02:43:39;;;;;;;30.63;16.35;;;17.30;99.90;;;;;;5119739;27;20087;-72
2022/06/18 02:46:06;;;;;;;34.25;16.40;;;17.80;99.20;;;;;;5119148;27;20039;-72
2022/06/18 02:48:34;;;;;;;33.10;17.83;;;19.50;99.90;;;;;;5118964;27;20047;-72
2022/06/18 02:51:01;;;;;;;36.88;17.67;;;18.40;98.00;;;;;;5119313;27;20039;-73
2022/06/18 02:53:29;;;;;;;42.45;17.73;;;17.20;99.90;;;;;;5119117;27;20180;-73
2022/06/18 02:55:58;;;;;;;32.72;17.73;;;17.30;99.90;;;;;;5118973;27;20046;-72
2022/06/18 02:58:30;;;;;;;40.42;18.80;;;17.40;99.90;;;;;;5118772;27;20041;-72
2022/06/18 03:01:04;;;;;;;43.40;18.85;;;17.10;99.90;;;;;;5102040;27;20080;-73
2022/06/18 03:03:38;;;;;;;38.85;18.77;;;18.40;98.70;;;;;;5101947;27;20560;-72
2022/06/18 03:06:04;;;;;;;35.65;17.17;;;;;;;;;;5118715;27;20046;-72
2022/06/18 03:08:31;;;;;;;32.50;18.20;;;19.00;99.90;;;;;;5101636;27;20050;-72
2022/06/18 03:13:42;;;;;;;40.65;19.40;;;18.10;99.10;;;;;;5118464;27;20495;-72
2022/06/18 03:16:10;;;;;;;35.50;18.67;;;18.00;99.10;;;;;;5118684;27;20505;-72
2022/06/18 03:18:37;;;;;;;38.75;18.48;;;17.80;99.20;;;;;;5118614;27;20122;-72
2022/06/18 03:21:03;;;;;;;46.28;19.38;;;;;;;;;;5101758;27;20047;-72
2022/06/18 03:23:30;;;;;;;43.08;20.48;;;17.60;99.30;;;;;;5101580;27;20051;-72
2022/06/18 03:25:56;;;;;;;40.58;19.35;;;;;;;;;;5118457;27;20042;-72
2022/06/18 03:28:24;;;;;;;41.80;19.88;;;17.80;99.70;;;;;;5101548;27;20047;-72
2022/06/18 03:30:51;;;;;;;43.50;19.17;;;;;;;;;;5118361;27;20054;-72
2022/06/18 03:33:17;;;;;;;37.30;18.67;;;18.40;99.90;;;;;;5117764;27;20043;-72
2022/06/18 03:35:45;;;;;;;46.10;18.95;;;18.50;99.90;;;;;;5118254;27;20046;-72
2022/06/18 03:38:12;;;;;;;39.80;18.20;;;17.60;99.50;;;;;;5118413;27;20092;-72
2022/06/18 03:40:38;;;;;;;43.15;17.77;;;16.50;99.90;;;;;;5118835;27;20419;-72
2022/06/18 03:43:04;;;;;;;36.60;17.20;;;;;;;;;;5118012;27;20462;-72
2022/06/18 03:45:35;;;;;;;43.08;17.85;;;17.80;99.90;;;;;;5101272;27;20062;-72
2022/06/18 03:48:00;;;;;;;38.78;17.95;;;17.40;99.90;;;;;;5118475;27;20122;-72
2022/06/18 03:50:26;;;;;;;35.60;16.80;;;16.50;99.90;;;;;;5117930;27;20608;-72
2022/06/18 03:52:52;;;;;;;35.05;16.83;;;;;;;;;;5118028;27;20047;-72
2022/06/18 03:55:18;;;;;;;32.20;16.13;;;;;;;;;;5118099;27;20047;-72
2022/06/18 03:57:44;;;;;;;37.28;15.52;;;;;;;;;;5117925;27;20038;-72
2022/06/18 04:00:20;;;;;;;35.13;16.65;;;18.70;99.90;;;;;;5117856;27;20035;-72
2022/06/18 04:02:46;;;;;;;31.40;15.98;;;;;;;;;;5101169;27;20387;-72
2022/06/18 04:05:12;;;;;;;35.00;15.32;;;;;;;;;;5117710;27;20451;-72
2022/06/18 04:07:40;;;;;;;38.90;15.85;;;17.50;99.90;;;;;;5117698;27;20035;-72
2022/06/18 04:10:07;;;;;;;39.75;15.02;;;17.60;99.90;;;;;;5118015;27;20459;-72
2022/06/18 04:12:33;;;;;;;32.83;15.23;;;17.40;99.90;;;;;;5117527;27;20035;-72
2022/06/18 04:14:59;;;;;;;24.00;14.52;;;;;;;;;;5100400;27;20134;-72
2022/06/18 04:17:25;;;;;;;33.53;13.90;;;;;;;;;;5117370;27;20031;-72
2022/06/18 04:19:52;;;;;;;34.35;14.75;;;;;;;;;;5117315;27;20126;-72
2022/06/18 04:22:18;;;;;;;33.72;14.20;;;;;;;;;;5117273;27;20039;-72
2022/06/18 04:24:44;;;;;;;32.88;14.05;;;;;;;;;;5117163;27;20038;-72
2022/06/18 04:27:10;;;;;;;34.97;14.05;;;;;;;;;;5117145;27;20050;-72
2022/06/18 04:29:36;;;;;;;39.45;14.50;;;16.60;99.90;;;;;;5117265;27;20195;-72
2022/06/18 04:32:02;;;;;;;34.72;13.73;;;;;;;;;;5117322;27;20096;-72
2022/06/18 04:34:28;;;;;;;26.17;13.15;;;17.20;99.90;;;;;;5099957;27;20050;-72
2022/06/18 04:36:54;;;;;;;37.80;13.65;;;;;;;;;;5099951;27;20043;-72
2022/06/18 04:39:20;;;;;;;30.48;11.95;;;;;;;;;;5117064;27;20039;-72
2022/06/18 04:41:47;;;;;;;32.30;12.50;;;;;;;;;;5100110;27;20094;-72
2022/06/18 04:44:13;;;;;;;31.08;11.82;;;16.60;99.90;;;;;;5116081;27;20400;-72
2022/06/18 04:46:39;;;;;;;26.05;12.05;;;;;;;;;;5116783;27;20043;-72
2022/06/18 04:49:05;;;;;;;30.60;11.70;;;;;;;;;;5099847;27;20126;-72
2022/06/18 04:51:31;;;;;;;28.90;11.32;;;;;;;;;;5099949;27;20122;-72
2022/06/18 04:53:57;;;;;;;35.65;11.52;;;;;;;;;;5116594;27;20055;-72
2022/06/18 04:56:23;;;;;;;26.38;10.98;;;;;;;;;;5116546;27;20051;-72
2022/06/18 04:58:49;;;;;;;28.90;11.18;;;17.80;99.90;;;;;;5116658;27;20091;-72
2022/06/18 05:01:18;;;;;;;33.47;10.90;;;19.10;99.90;;;;;;5116422;27;20130;-72
2022/06/18 05:03:44;;;;;;;28.17;11.23;;;;;;;;;;5100278;27;20035;-72
2022/06/18 05:06:10;;;;;;;24.58;10.15;;;;;;;;;;5116405;27;20046;-72
2022/06/18 05:08:36;;;;;;;21.52;11.43;;;;;;;;;;5116930;27;20035;-76
2022/06/18 05:11:02;;;;;;;24.63;10.85;;;19.00;99.90;;;;;;5099654;27;20070;-75
2022/06/18 05:13:31;;;;;;;28.30;10.93;;;;;;;;;;5134805;27;20128;-76
2022/06/18 05:15:58;;;;;;;24.95;10.00;;;18.40;99.90;;;;;;5099271;27;20380;-75
2022/06/18 05:18:27;;;;;;;22.58;10.57;;;18.30;99.90;;;;;;5116296;27;20042;-75
2022/06/18 05:20:53;;;;;;;25.13;9.98;;;;;;;;;;5099634;27;20074;-75
2022/06/18 05:23:20;;;;;;;24.33;10.38;;;;;;;;;;5116254;27;20042;-75
2022/06/18 05:25:46;;;;;;;23.35;9.90;;;18.20;99.90;;;;;;5116232;27;20073;-75
2022/06/18 05:28:13;;;;;;;28.58;11.20;;;18.40;99.90;;;;;;5099548;27;20489;-75
2022/06/18 05:30:40;;;;;;;20.38;9.15;;;18.40;99.90;;;;;;5116012;27;20049;-75
2022/06/18 05:33:06;;;;;;;24.05;9.70;;;19.30;99.90;;;;;;5116177;27;20043;-75
2022/06/18 05:35:33;;;;;;;19.35;9.32;;;;;;;;;;5116104;27;20422;-75
2022/06/18 05:37:59;;;;;;;20.08;9.60;;;;;;;;;;5099245;27;20046;-75
2022/06/18 05:40:25;;;;;;;23.27;9.90;;;;;;;;;;5134559;27;20539;-75
2022/06/18 05:42:53;;;;;;;22.92;8.45;;;;;;;;;;5115970;27;20039;-75
2022/06/18 05:45:19;;;;;;;20.52;8.45;;;18.60;99.90;;;;;;5115991;28;20072;-75
2022/06/18 05:47:45;;;;;;;23.52;8.90;;;17.80;99.90;;;;;;5115952;27;20126;-75
2022/06/18 05:50:14;;;;;;;17.83;7.85;;;18.60;99.90;;;;;;5116218;27;20130;-75
2022/06/18 05:52:41;;;;;;;21.63;7.88;;;;;;;;;;5115866;27;20043;-74
2022/06/18 05:55:07;;;;;;;21.63;7.75;;;;;;;;;;5098716;27;20050;-74
2022/06/18 05:57:33;;;;;;;19.58;7.55;;;;;;;;;;5115836;28;20039;-74
2022/06/18 06:00:07;;;;;;;21.65;7.25;;;18.60;99.90;;;;;;5115634;28;20046;-74
2022/06/18 06:02:33;;;;;;;19.98;7.75;;;;;;;;;;5098762;28;20035;-74
2022/06/18 06:04:59;;;;;;;22.85;7.53;;;;;;;;;;5115993;28;20437;-74
2022/06/18 06:07:26;;;;;;;15.52;6.53;;;;;;;;;;5115775;28;20105;-75
2022/06/18 06:12:37;;;;;;;23.33;7.78;;;18.20;99.90;;;;;;5117308;28;20047;-74
2022/06/18 06:15:04;;;;;;;12.90;6.28;;;18.40;99.90;;;;;;5098509;28;20100;-75
2022/06/18 06:17:32;;;;;;;16.58;7.82;;;;;;;;;;5098932;28;20039;-74
2022/06/18 06:20:08;;;;;;;12.15;5.72;;;18.70;99.90;;;;;;5115596;28;20035;-74
2022/06/18 06:22:35;;;;;;;13.60;5.68;;;;;;;;;;5115637;28;20118;-74
2022/06/18 06:25:01;;;;;;;16.13;5.47;;;19.50;99.90;;;;;;5115683;28;20531;-74
2022/06/18 06:27:27;;;;;;;11.07;4.60;;;19.40;99.90;;;;;;5115427;28;20079;-74
2022/06/18 06:29:52;;;;;;;13.02;3.88;;;17.90;99.90;;;;;;5115992;28;20043;-74
2022/06/18 06:32:18;;;;;;;7.93;2.85;;;;;;;;;;5098602;28;20491;-74
2022/06/18 06:34:44;;;;;;;8.32;3.47;;;;;;;;;;5117258;28;20043;-74
2022/06/18 06:37:10;;;;;;;9.50;3.08;;;;;;;;;;5098075;28;20035;-74
2022/06/18 06:39:37;;;;;;;5.85;2.70;;;;;;;;;;5115340;28;20067;-74
2022/06/18 06:42:03;;;;;;;6.80;2.60;;;;;;;;;;5115379;28;20483;-74
2022/06/18 06:44:29;;;;;;;7.78;2.47;;;18.80;99.90;;;;;;5115728;28;20035;-74
2022/06/18 06:46:55;;;;;;;4.88;3.17;;;;;;;;;;5115361;28;20372;-74
2022/06/18 06:49:20;;;;;;;8.38;2.95;;;20.00;99.90;;;;;;5115365;28;20039;-74
2022/06/18 06:51:47;;;;;;;4.90;2.22;;;;;;;;;;5115341;28;20046;-74
2022/06/18 06:54:14;;;;;;;11.13;2.10;;;;;;;;;;5114915;28;20487;-74
2022/06/18 06:59:25;;;;;;;3.67;1.77;;;19.00;99.90;;;;;;5115500;28;20035;-74
2022/06/18 07:01:52;;;;;;;4.13;1.85;;;;;;;;;;5098763;28;20372;-74
2022/06/18 07:04:18;;;;;;;3.58;2.40;;;;;;;;;;5115405;28;20428;-74
2022/06/18 07:06:44;;;;;;;3.85;2.20;;;;;;;;;;5115184;27;20388;-74
2022/06/18 07:09:10;;;;;;;5.10;2.55;;;;;;;;;;5119056;27;20138;-74
2022/06/18 07:11:37;;;;;;;3.13;1.90;;;19.60;99.90;;;;;;5118773;27;20042;-74
2022/06/18 07:14:04;;;;;;;4.05;1.80;;;18.30;99.90;;;;;;5101884;27;20062;-74
2022/06/18 07:16:30;;;;;;;7.03;2.25;;;;;;;;;;5101650;27;20143;-74
2022/06/18 07:18:56;;;;;;;3.83;2.03;;;;;;;;;;5119003;27;20040;-74
2022/06/18 07:21:23;;;;;;;8.15;2.40;;;20.30;99.90;;;;;;5118461;27;20042;-74
2022/06/18 07:23:51;;;;;;;6.80;2.38;;;20.30;99.90;;;;;;5118477;27;20031;-74
2022/06/18 07:26:21;;;;;;;9.30;2.30;;;19.60;99.80;;;;;;5118487;27;20043;-74
2022/06/18 07:28:47;;;;;;;5.47;2.38;;;;;;;;;;5118416;27;20058;-74
2022/06/18 07:31:23;;;;;;;5.35;2.22;;;20.50;99.90;;;;;;5118353;27;20051;-73
2022/06/18 07:33:49;;;;;;;6.22;2.50;;;;;;;;;;5101570;27;20555;-74
2022/06/18 07:36:15;;;;;;;7.45;2.60;;;;;;;;;;5118215;27;20047;-74
2022/06/18 07:38:41;;;;;;;4.20;2.40;;;;;;;;;;5101211;27;20126;-74
2022/06/18 07:41:07;;;;;;;8.32;2.33;;;;;;;;;;5118116;27;20046;-74
2022/06/18 07:43:33;;;;;;;6.18;2.75;;;;;;;;;;5101031;27;20035;-73
2022/06/18 07:46:01;;;;;;;6.00;2.70;;;18.80;99.90;;;;;;5101025;27;20035;-74
2022/06/18 07:48:26;;;;;;;8.13;2.83;;;19.60;99.90;;;;;;5117981;27;20055;-75
2022/06/18 07:50:53;;;;;;;7.25;2.65;;;;;;;;;;5117914;27;20051;-74
2022/06/18 07:53:24;;;;;;;7.65;3.03;;;19.70;99.70;;;;;;5117767;27;20039;-74
2022/06/18 07:55:51;;;;;;;6.20;2.67;;;19.60;99.90;;;;;;5117789;27;20047;-73
2022/06/18 07:58:17;;;;;;;7.82;2.63;;;;;;;;;;5100785;27;20077;-74
2022/06/18 08:00:43;;;;;;;7.10;2.80;;;20.40;99.90;;;;;;5118029;27;20382;-74
2022/06/18 08:03:12;;;;;;;5.68;2.70;;;19.00;99.90;;;;;;5117993;27;20035;-74
2022/06/18 08:05:38;;;;;;;10.07;2.60;;;;;;;;;;5100731;27;20051;-74
2022/06/18 08:08:04;;;;;;;10.85;3.50;;;19.20;99.90;;;;;;5117881;27;20062;-74
2022/06/18 08:10:32;;;;;;;9.02;3.05;;;19.60;99.90;;;;;;5100986;27;20433;-74
2022/06/18 08:12:58;;;;;;;7.15;2.83;;;20.50;99.90;;;;;;5117636;27;20047;-74
2022/06/18 08:15:24;;;;;;;5.93;2.97;;;;;;;;;;5100198;27;20107;-73
2022/06/18 08:17:50;;;;;;;6.85;2.58;;;20.30;99.90;;;;;;5100663;27;20097;-74
2022/06/18 08:20:15;;;;;;;5.97;2.78;;;19.90;99.90;;;;;;5100620;27;20501;-74
2022/06/18 08:22:44;;;;;;;9.15;3.00;;;19.40;99.70;;;;;;5117349;27;20143;-74
2022/06/18 08:25:12;;;;;;;9.48;2.28;;;18.70;99.90;;;;;;5117504;27;20570;-74
2022/06/18 08:27:39;;;;;;;8.15;2.97;;;20.20;99.90;;;;;;5100539;27;20132;-74
2022/06/18 08:30:05;;;;;;;5.43;2.50;;;20.70;99.90;;;;;;5117567;27;20043;-74
2022/06/18 08:32:31;;;;;;;6.20;2.70;;;19.00;99.90;;;;;;5117207;27;20050;-74
2022/06/18 08:34:57;;;;;;;8.52;2.70;;;19.20;99.90;;;;;;5117091;27;20039;-74
2022/06/18 08:37:23;;;;;;;9.95;3.13;;;20.20;99.50;;;;;;5100270;27;20035;-74
2022/06/18 08:39:49;;;;;;;5.60;2.17;;;18.90;99.90;;;;;;5083240;27;20552;-74
2022/06/18 08:42:47;;;;;;;9.68;3.05;;;20.00;99.00;;;;;;5100074;27;20035;-74
2022/06/18 08:45:33;;;;;;;6.03;2.40;;;20.90;99.90;;;;;;5117035;27;20047;-74
2022/06/18 08:48:17;;;;;;;10.38;2.95;;;20.90;99.90;;;;;;5099778;27;20039;-74
2022/06/18 08:51:07;;;;;;;8.18;2.40;;;20.70;99.90;;;;;;5116994;27;20514;-74
2022/06/18 08:53:51;;;;;;;8.07;2.80;;;21.20;99.90;;;;;;5100110;27;20066;-74
2022/06/18 08:56:44;;;;;;;6.15;2.20;;;20.80;99.90;;;;;;5116751;27;20075;-74
2022/06/18 08:59:26;;;;;;;6.05;2.25;;;21.20;99.90;;;;;;5116768;27;20039;-74
2022/06/18 09:02:01;;;;;;;12.60;2.85;;;20.20;98.30;;;;;;5099700;27;20475;-74
2022/06/18 09:04:54;;;;;;;6.53;2.80;;;20.70;97.40;;;;;;5116542;27;20470;-74
2022/06/18 09:07:58;;;;;;;9.30;2.55;;;21.10;99.90;;;;;;5116641;27;20126;-75
2022/06/18 09:10:45;;;;;;;6.30;2.10;;;20.70;98.30;;;;;;5094886;27;20054;-74
2022/06/18 09:13:23;;;;;;;8.38;2.72;;;20.60;99.90;;;;;;5116076;27;20043;-74
2022/06/18 09:15:57;;;;;;;3.72;1.92;;;20.80;97.80;;;;;;5116340;27;20047;-75
2022/06/18 09:18:34;;;;;;;9.32;2.17;;;20.30;99.90;;;;;;5116337;27;20067;-74
2022/06/18 09:21:04;;;;;;;7.00;2.00;;;21.30;99.90;;;;;;5116522;27;20127;-74
2022/06/18 09:23:35;;;;;;;5.63;2.25;;;20.80;97.10;;;;;;5116229;27;20165;-74
2022/06/18 09:26:07;;;;;;;4.45;2.28;;;21.00;99.90;;;;;;5116211;27;20043;-74
2022/06/18 09:28:38;;;;;;;5.38;2.03;;;20.90;97.40;;;;;;5099218;27;20118;-74
2022/06/18 09:31:45;;;;;;;3.85;1.90;;;21.60;99.30;;;;;;5116073;27;20051;-74
2022/06/18 09:34:42;;;;;;;9.27;2.63;;;20.80;96.00;;;;;;5067405;27;20057;-74
2022/06/18 09:37:15;;;;;;;4.75;2.15;;;21.30;99.90;;;;;;5099112;27;20039;-74
2022/06/18 09:39:44;;;;;;;6.80;2.00;;;21.50;98.90;;;;;;5116099;27;20043;-75
2022/06/18 09:42:24;;;;;;;8.25;2.17;;;21.00;99.60;;;;;;5116194;27;20046;-75
2022/06/18 09:44:55;;;;;;;8.40;2.10;;;21.30;97.50;;;;;;5099021;27;20050;-75
2022/06/18 09:47:38;;;;;;;5.55;2.15;;;20.40;99.20;;;;;;5115996;27;20075;-75
2022/06/18 09:50:14;;;;;;;6.78;1.98;;;20.70;99.20;;;;;;5115982;27;20046;-75
2022/06/18 09:52:42;;;;;;;5.90;1.88;;;21.80;98.00;;;;;;5116182;28;20483;-75
2022/06/18 09:55:18;;;;;;;4.35;1.73;;;21.40;99.00;;;;;;5115910;28;20058;-75
2022/06/18 09:57:51;;;;;;;6.35;2.17;;;21.70;98.40;;;;;;5115810;28;20483;-73
2022/06/18 10:00:23;;;;;;;7.80;1.73;;;22.40;95.90;;;;;;5115869;28;20073;-73
2022/06/18 10:03:02;;;;;;;5.55;1.70;;;21.70;97.80;;;;;;5115913;28;20039;-73
2022/06/18 10:08:22;;;;;;;6.05;1.50;;;21.70;96.30;;;;;;5116101;28;20514;-72
2022/06/18 10:11:07;;;;;;;8.57;2.35;;;22.00;92.80;;;;;;5115755;28;20081;-72
2022/06/18 10:13:39;;;;;;;6.75;2.00;;;21.70;93.70;;;;;;5115577;27;20550;-72
2022/06/18 10:16:21;;;;;;;7.30;1.70;;;21.80;93.90;;;;;;5098751;28;20043;-72
2022/06/18 10:19:38;;;;;;;5.47;1.92;;;21.90;97.30;;;;;;5115830;28;20046;-72
2022/06/18 10:22:22;;;;;;;3.63;1.25;;;22.00;96.80;;;;;;5109300;28;20051;-72
2022/06/18 10:24:49;;;;;;;7.15;1.83;;;;;;;;;;5115800;28;20180;-71
2022/06/18 10:27:27;;;;;;;5.68;1.50;;;21.40;96.20;;;;;;5115796;28;20084;-71
2022/06/18 10:30:05;;;;;;;3.95;1.80;;;21.00;96.00;;;;;;5115426;28;20082;-71
2022/06/18 10:33:19;;;;;;;5.90;1.70;;;22.30;96.00;;;;;;5115546;28;20114;-71
2022/06/18 10:36:22;;;;;;;7.05;2.13;;;22.40;96.20;;;;;;5014224;28;20100;-71
2022/06/18 10:39:13;;;;;;;8.15;1.50;;;22.30;96.50;;;;;;5086077;28;20126;-72
2022/06/18 10:42:11;;;;;;;8.13;1.73;;;21.20;95.60;;;;;;5115897;28;20097;-72
2022/06/18 10:44:49;;;;;;;5.88;1.70;;;22.00;95.70;;;;;;5119748;27;20126;-73
2022/06/18 10:47:17;;;;;;;7.13;1.63;;;22.20;95.70;;;;;;5119599;27;20390;-74
2022/06/18 10:49:45;;;;;;;4.95;1.58;;;21.80;95.20;;;;;;5119197;27;20039;-74
2022/06/18 10:52:24;;;;;;;6.30;1.77;;;22.30;90.90;;;;;;5119159;27;20039;-74
2022/06/18 10:55:03;;;;;;;5.78;2.00;;;22.90;95.20;;;;;;5119034;27;20537;-74
2022/06/18 10:57:29;;;;;;;6.93;2.03;;;22.30;95.40;;;;;;5119486;27;20051;-74
2022/06/18 10:59:54;;;;;;;8.40;1.90;;;23.10;95.50;;;;;;5119197;27;20442;-75
2022/06/18 11:02:37;;;;;;;8.93;2.08;;;21.50;95.10;;;;;;5102201;27;20046;-74
2022/06/18 11:05:24;;;;;;;8.95;1.80;;;22.50;90.80;;;;;;5137584;27;20043;-74
2022/06/18 11:07:52;;;;;;;8.00;1.67;;;22.40;91.60;;;;;;5119027;27;20126;-74
2022/06/18 11:10:24;;;;;;;8.77;2.15;;;21.50;94.60;;;;;;5102178;27;20038;-74
2022/06/18 11:12:52;;;;;;;;;;;22.40;91.70;;;;;;5119269;27;20081;-74
2022/06/18 11:15:28;;;;;;;8.80;2.05;;;22.70;94.80;;;;;;5118477;27;20427;-75
2022/06/18 11:17:54;;;;;;;9.40;1.90;;;22.40;90.80;;;;;;5118579;27;20077;-74
2022/06/18 11:20:27;;;;;;;9.63;1.85;;;21.70;94.70;;;;;;5118734;27;20035;-74
2022/06/18 11:22:58;;;;;;;8.93;2.33;;;22.00;91.10;;;;;;5101388;27;20118;-74
2022/06/18 11:25:49;;;;;;;8.65;1.75;;;23.00;92.70;;;;;;5118640;27;20104;-74
2022/06/18 11:28:20;;;;;;;7.68;1.95;;;21.70;94.30;;;;;;5101586;27;20072;-74
2022/06/18 11:30:49;;;;;;;7.13;1.45;;;22.60;90.50;;;;;;5118566;27;20043;-75
2022/06/18 11:33:40;;;;;;;5.35;1.70;;;22.60;93.80;;;;;;5119054;27;20042;-75
2022/06/18 11:36:18;;;;;;;5.95;1.77;;;22.90;94.10;;;;;;5101333;27;20100;-75
2022/06/18 11:38:58;;;;;;;7.43;2.03;;;22.50;93.80;;;;;;5101904;27;20043;-74
2022/06/18 11:41:38;;;;;;;8.70;1.85;;;21.10;93.40;;;;;;5101591;27;20031;-74
2022/06/18 11:44:15;;;;;;;10.30;1.98;;;21.70;93.80;;;;;;5118482;27;20039;-75
2022/06/18 11:47:04;;;;;;;9.98;2.25;;;21.90;88.70;;;;;;5118337;27;20043;-74
2022/06/18 11:49:36;;;;;;;10.90;2.30;;;22.80;94.00;;;;;;5118120;27;20075;-72
2022/06/18 11:52:10;;;;;;;11.70;2.15;;;22.10;93.70;;;;;;5118170;27;20075;-72
2022/06/18 11:54:45;;;;;;;11.43;2.10;;;22.90;93.40;;;;;;5117403;27;20118;-72
2022/06/18 11:57:38;;;;;;;10.25;1.77;;;22.80;93.30;;;;;;5118050;27;20050;-72
2022/06/18 12:00:16;;;;;;;8.95;1.80;;;22.30;93.30;;;;;;5118226;27;20155;-72
2022/06/18 12:03:16;;;;;;;11.40;2.10;;;22.70;93.60;;;;;;5118156;27;20141;-72
2022/06/18 12:05:47;;;;;;;11.65;2.08;;;21.60;93.40;;;;;;5068345;27;20043;-72
2022/06/18 12:08:17;;;;;;;7.90;1.90;;;23.00;93.50;;;;;;5117954;27;20049;-72
2022/06/18 12:11:22;;;;;;;9.60;2.30;;;22.90;93.50;;;;;;5117737;27;20046;-72
2022/06/18 12:14:08;;;;;;;8.38;2.03;;;21.50;93.40;;;;;;5117297;27;20085;-72
2022/06/18 12:16:51;;;;;;;8.98;2.30;;;22.30;88.10;;;;;;5117396;27;20039;-72
2022/06/18 12:19:43;;;;;;;14.07;2.10;;;22.20;93.50;;;;;;5100605;27;20035;-72
2022/06/18 12:22:32;;;;;;;15.82;2.70;;;22.20;94.00;;;;;;5112553;27;20054;-72
2022/06/18 12:25:15;;;;;;;10.55;2.60;;;21.90;93.80;;;;;;5117493;27;20437;-72
2022/06/18 12:28:10;;;;;;;14.05;2.65;;;21.70;93.50;;;;;;5117342;27;20054;-72
2022/06/18 12:31:01;;;;;;;12.38;2.30;;;23.20;93.70;;;;;;5100679;27;20496;-72
2022/06/18 12:33:55;;;;;;;20.13;2.63;;;22.30;94.20;;;;;;5100037;27;20543;-71
2022/06/18 12:36:38;;;;;;;15.02;2.75;;;21.70;93.80;;;;;;5117078;27;20050;-72
2022/06/18 12:39:29;;;;;;;18.70;2.90;;;22.00;93.70;;;;;;5100209;27;20487;-72
2022/06/18 12:42:05;;;;;;;11.98;2.53;;;21.40;93.80;;;;;;5100397;27;20077;-72
2022/06/18 12:44:53;;;;;;;17.77;2.97;;;21.80;88.90;;;;;;5117092;27;20035;-72
2022/06/18 12:47:41;;;;;;;15.60;2.33;;;22.30;94.00;;;;;;5117133;27;20047;-71
2022/06/18 12:50:24;;;;;;;15.75;2.60;;;21.10;94.00;;;;;;5116997;27;20092;-71
2022/06/18 12:53:14;;;;;;;13.32;2.30;;;21.60;93.90;;;;;;5116767;27;20078;-71
2022/06/18 12:55:55;;;;;;;12.05;1.90;;;22.60;94.00;;;;;;5116596;27;20507;-71
2022/06/18 12:58:53;;;;;;;22.52;2.72;;;21.60;88.20;;;;;;5100153;27;20045;-71
2022/06/18 13:01:32;;;;;;;11.30;2.90;;;21.70;88.70;;;;;;5116282;27;20085;-71
2022/06/18 13:04:32;;;;;;;14.10;3.42;;;22.70;93.90;;;;;;5116628;27;20122;-71
2022/06/18 13:07:18;;;;;;;18.10;2.83;;;22.50;92.10;;;;;;5116647;27;20039;-71
2022/06/18 13:09:44;;;;;;;11.70;2.25;;;22.40;93.60;;;;;;5116492;27;20078;-71
2022/06/18 13:12:43;;;;;;;15.18;2.33;;;21.90;93.30;;;;;;5099465;27;20043;-71
2022/06/18 13:15:18;;;;;;;13.75;2.10;;;20.40;92.70;;;;;;5116040;27;20050;-71
2022/06/18 13:17:49;;;;;;;16.48;2.60;;;21.80;93.00;;;;;;5116614;27;20111;-71
2022/06/18 13:20:53;;;;;;;13.20;2.17;;;20.20;92.90;;;;;;5116644;27;20039;-71
2022/06/18 13:29:19;;;;;;;15.27;2.28;;;21.40;86.80;;;;;;5116240;27;20422;-71
2022/06/18 13:31:47;;;;;;;13.23;2.05;;;20.90;91.70;;;;;;5098960;27;20050;-71
2022/06/18 13:34:34;;;;;;;16.88;2.88;;;20.50;91.30;;;;;;5134701;27;20035;-71
2022/06/18 13:37:10;;;;;;;13.93;2.03;;;21.40;84.80;;;;;;5116077;27;20043;-71
2022/06/18 13:39:48;;;;;;;15.05;2.58;;;20.60;91.60;;;;;;5116190;27;20049;-71
2022/06/18 13:42:26;;;;;;;15.98;2.40;;;20.80;87.80;;;;;;5116093;27;20518;-71
2022/06/18 13:45:06;;;;;;;14.27;2.80;;;21.00;91.20;;;;;;5116025;27;20049;-71
2022/06/18 13:47:49;;;;;;;10.07;2.58;;;21.60;82.80;;;;;;5116105;27;20035;-71
2022/06/18 13:50:30;;;;;;;13.20;2.30;;;21.50;91.50;;;;;;5115833;27;20483;-71